sensor_id;sensor_type;location;lat;lon;timestamp;P1;durP1;ratioP1;P2;durP2;ratioP2
40609;SDS011;26316;55.976;37.140;2023-04-24T00:02:15;5.70;;;4.10;;
40609;SDS011;26316;55.976;37.140;2023-04-24T00:04:41;4.72;;;4.00;;
40609;SDS011;26316;55.976;37.140;2023-04-24T00:07:10;4.43;;;3.88;;
40609;SDS011;26316;55.976;37.140;2023-04-24T00:09:36;4.45;;;4.03;;
40609;SDS011;26316;55.976;37.140;2023-04-24T00:12:02;5.20;;;4.00;;
40609;SDS011;26316;55.976;37.140;2023-04-24T00:14:31;6.60;;;4.00;;
40609;SDS011;26316;55.976;37.140;2023-04-24T00:16:57;5.35;;;3.60;;
40609;SDS011;26316;55.976;37.140;2023-04-24T00:19:22;6.95;;;4.25;;
40609;SDS011;26316;55.976;37.140;2023-04-24T00:21:48;4.38;;;3.70;;
40609;SDS011;26316;55.976;37.140;2023-04-24T00:24:17;4.03;;;3.67;;
40609;SDS011;26316;55.976;37.140;2023-04-24T00:26:43;5.20;;;3.95;;
40609;SDS011;26316;55.976;37.140;2023-04-24T00:29:09;5.30;;;3.92;;
40609;SDS011;26316;55.976;37.140;2023-04-24T00:31:35;4.55;;;3.72;;
40609;SDS011;26316;55.976;37.140;2023-04-24T00:34:01;4.82;;;3.35;;
40609;SDS011;26316;55.976;37.140;2023-04-24T00:36:27;3.92;;;3.40;;
40609;SDS011;26316;55.976;37.140;2023-04-24T00:38:54;4.82;;;3.83;;
40609;SDS011;26316;55.976;37.140;2023-04-24T00:41:20;4.78;;;3.70;;
40609;SDS011;26316;55.976;37.140;2023-04-24T00:43:47;4.05;;;3.60;;
40609;SDS011;26316;55.976;37.140;2023-04-24T00:46:13;4.72;;;3.95;;
40609;SDS011;26316;55.976;37.140;2023-04-24T00:48:39;3.78;;;3.45;;
40609;SDS011;26316;55.976;37.140;2023-04-24T00:51:06;5.53;;;3.20;;
40609;SDS011;26316;55.976;37.140;2023-04-24T00:53:32;4.60;;;3.45;;
40609;SDS011;26316;55.976;37.140;2023-04-24T00:55:58;4.82;;;3.05;;
40609;SDS011;26316;55.976;37.140;2023-04-24T00:58:25;6.10;;;3.38;;
40609;SDS011;26316;55.976;37.140;2023-04-24T01:00:52;6.25;;;3.70;;
40609;SDS011;26316;55.976;37.140;2023-04-24T01:03:22;6.05;;;3.80;;
40609;SDS011;26316;55.976;37.140;2023-04-24T01:05:51;3.72;;;3.38;;
40609;SDS011;26316;55.976;37.140;2023-04-24T01:08:18;4.32;;;3.92;;
40609;SDS011;26316;55.976;37.140;2023-04-24T01:10:45;4.78;;;4.30;;
40609;SDS011;26316;55.976;37.140;2023-04-24T01:13:11;6.85;;;4.40;;
40609;SDS011;26316;55.976;37.140;2023-04-24T01:15:38;4.50;;;3.92;;
40609;SDS011;26316;55.976;37.140;2023-04-24T01:18:03;4.60;;;3.80;;
40609;SDS011;26316;55.976;37.140;2023-04-24T01:20:29;6.65;;;4.10;;
40609;SDS011;26316;55.976;37.140;2023-04-24T01:22:55;4.82;;;3.78;;
40609;SDS011;26316;55.976;37.140;2023-04-24T01:25:24;8.82;;;4.20;;
40609;SDS011;26316;55.976;37.140;2023-04-24T01:27:51;5.70;;;4.95;;
40609;SDS011;26316;55.976;37.140;2023-04-24T01:30:17;7.95;;;4.50;;
40609;SDS011;26316;55.976;37.140;2023-04-24T01:32:43;9.43;;;4.45;;
40609;SDS011;26316;55.976;37.140;2023-04-24T01:35:10;8.45;;;4.60;;
40609;SDS011;26316;55.976;37.140;2023-04-24T01:37:36;5.85;;;5.18;;
40609;SDS011;26316;55.976;37.140;2023-04-24T01:40:05;9.65;;;6.00;;
40609;SDS011;26316;55.976;37.140;2023-04-24T01:42:32;9.32;;;5.38;;
40609;SDS011;26316;55.976;37.140;2023-04-24T01:44:59;6.15;;;4.88;;
40609;SDS011;26316;55.976;37.140;2023-04-24T01:47:25;6.85;;;5.35;;
40609;SDS011;26316;55.976;37.140;2023-04-24T01:49:51;5.88;;;4.80;;
40609;SDS011;26316;55.976;37.140;2023-04-24T01:52:16;6.00;;;4.97;;
40609;SDS011;26316;55.976;37.140;2023-04-24T01:54:44;6.53;;;5.35;;
40609;SDS011;26316;55.976;37.140;2023-04-24T01:57:10;5.78;;;5.10;;
40609;SDS011;26316;55.976;37.140;2023-04-24T01:59:36;7.07;;;5.60;;
40609;SDS011;26316;55.976;37.140;2023-04-24T02:02:02;6.22;;;5.10;;
40609;SDS011;26316;55.976;37.140;2023-04-24T02:04:28;8.48;;;5.50;;
40609;SDS011;26316;55.976;37.140;2023-04-24T02:06:54;7.68;;;5.65;;
40609;SDS011;26316;55.976;37.140;2023-04-24T02:09:20;6.03;;;5.35;;
40609;SDS011;26316;55.976;37.140;2023-04-24T02:11:46;9.07;;;6.28;;
40609;SDS011;26316;55.976;37.140;2023-04-24T02:14:12;7.78;;;5.38;;
40609;SDS011;26316;55.976;37.140;2023-04-24T02:16:39;6.78;;;5.68;;
40609;SDS011;26316;55.976;37.140;2023-04-24T02:19:05;7.82;;;6.22;;
40609;SDS011;26316;55.976;37.140;2023-04-24T02:21:31;9.25;;;6.00;;
40609;SDS011;26316;55.976;37.140;2023-04-24T02:23:57;6.70;;;6.00;;
40609;SDS011;26316;55.976;37.140;2023-04-24T02:26:23;7.78;;;5.80;;
40609;SDS011;26316;55.976;37.140;2023-04-24T02:28:51;7.60;;;5.95;;
40609;SDS011;26316;55.976;37.140;2023-04-24T02:31:20;7.93;;;6.50;;
40609;SDS011;26316;55.976;37.140;2023-04-24T02:33:47;9.65;;;6.45;;
40609;SDS011;26316;55.976;37.140;2023-04-24T02:36:13;9.82;;;6.72;;
40609;SDS011;26316;55.976;37.140;2023-04-24T02:38:39;9.75;;;6.53;;
40609;SDS011;26316;55.976;37.140;2023-04-24T02:41:05;9.27;;;6.55;;
40609;SDS011;26316;55.976;37.140;2023-04-24T02:43:32;8.77;;;6.30;;
40609;SDS011;26316;55.976;37.140;2023-04-24T02:45:58;9.90;;;6.78;;
40609;SDS011;26316;55.976;37.140;2023-04-24T02:48:24;9.35;;;6.68;;
40609;SDS011;26316;55.976;37.140;2023-04-24T02:50:50;10.52;;;6.60;;
40609;SDS011;26316;55.976;37.140;2023-04-24T02:53:16;10.55;;;7.18;;
40609;SDS011;26316;55.976;37.140;2023-04-24T02:55:42;10.05;;;6.68;;
40609;SDS011;26316;55.976;37.140;2023-04-24T02:58:08;9.15;;;6.32;;
40609;SDS011;26316;55.976;37.140;2023-04-24T03:00:34;10.40;;;6.82;;
40609;SDS011;26316;55.976;37.140;2023-04-24T03:03:00;8.18;;;6.53;;
40609;SDS011;26316;55.976;37.140;2023-04-24T03:05:26;10.02;;;6.65;;
40609;SDS011;26316;55.976;37.140;2023-04-24T03:07:52;8.98;;;6.97;;
40609;SDS011;26316;55.976;37.140;2023-04-24T03:10:20;7.75;;;6.45;;
40609;SDS011;26316;55.976;37.140;2023-04-24T03:12:48;8.02;;;6.32;;
40609;SDS011;26316;55.976;37.140;2023-04-24T03:15:14;9.27;;;7.07;;
40609;SDS011;26316;55.976;37.140;2023-04-24T03:17:40;10.25;;;6.90;;
40609;SDS011;26316;55.976;37.140;2023-04-24T03:20:06;11.77;;;7.63;;
40609;SDS011;26316;55.976;37.140;2023-04-24T03:22:34;10.25;;;7.38;;
40609;SDS011;26316;55.976;37.140;2023-04-24T03:25:00;10.60;;;7.20;;
40609;SDS011;26316;55.976;37.140;2023-04-24T03:30:01;9.75;;;7.07;;
40609;SDS011;26316;55.976;37.140;2023-04-24T03:32:39;10.23;;;7.85;;
40609;SDS011;26316;55.976;37.140;2023-04-24T03:35:07;11.38;;;7.75;;
40609;SDS011;26316;55.976;37.140;2023-04-24T03:37:34;10.48;;;7.95;;
40609;SDS011;26316;55.976;37.140;2023-04-24T03:40:16;13.55;;;7.80;;
40609;SDS011;26316;55.976;37.140;2023-04-24T03:42:42;11.02;;;7.80;;
40609;SDS011;26316;55.976;37.140;2023-04-24T03:45:08;12.25;;;8.20;;
40609;SDS011;26316;55.976;37.140;2023-04-24T03:47:37;9.90;;;7.40;;
40609;SDS011;26316;55.976;37.140;2023-04-24T03:50:04;10.00;;;7.70;;
40609;SDS011;26316;55.976;37.140;2023-04-24T03:52:31;10.25;;;8.23;;
40609;SDS011;26316;55.976;37.140;2023-04-24T03:54:57;12.65;;;8.32;;
40609;SDS011;26316;55.976;37.140;2023-04-24T03:57:24;9.73;;;7.57;;
40609;SDS011;26316;55.976;37.140;2023-04-24T04:00:10;11.43;;;7.88;;
40609;SDS011;26316;55.976;37.140;2023-04-24T04:02:40;10.57;;;7.70;;
40609;SDS011;26316;55.976;37.140;2023-04-24T04:05:07;10.57;;;8.02;;
40609;SDS011;26316;55.976;37.140;2023-04-24T04:07:34;9.98;;;7.68;;
40609;SDS011;26316;55.976;37.140;2023-04-24T04:10:00;10.63;;;8.02;;
40609;SDS011;26316;55.976;37.140;2023-04-24T04:12:26;12.13;;;8.05;;
40609;SDS011;26316;55.976;37.140;2023-04-24T04:14:52;13.52;;;8.77;;
40609;SDS011;26316;55.976;37.140;2023-04-24T04:17:18;10.18;;;7.90;;
40609;SDS011;26316;55.976;37.140;2023-04-24T04:19:44;12.90;;;8.02;;
40609;SDS011;26316;55.976;37.140;2023-04-24T04:22:10;9.88;;;7.38;;
40609;SDS011;26316;55.976;37.140;2023-04-24T04:24:47;10.23;;;8.20;;
40609;SDS011;26316;55.976;37.140;2023-04-24T04:27:14;12.63;;;8.27;;
40609;SDS011;26316;55.976;37.140;2023-04-24T04:29:48;14.48;;;7.95;;
40609;SDS011;26316;55.976;37.140;2023-04-24T04:32:15;12.05;;;7.93;;
40609;SDS011;26316;55.976;37.140;2023-04-24T04:34:41;9.48;;;7.55;;
40609;SDS011;26316;55.976;37.140;2023-04-24T04:37:10;10.50;;;7.30;;
40609;SDS011;26316;55.976;37.140;2023-04-24T04:39:45;10.63;;;7.25;;
40609;SDS011;26316;55.976;37.140;2023-04-24T04:42:16;10.63;;;7.47;;
40609;SDS011;26316;55.976;37.140;2023-04-24T04:44:43;10.88;;;7.88;;
40609;SDS011;26316;55.976;37.140;2023-04-24T04:47:15;10.70;;;7.20;;
40609;SDS011;26316;55.976;37.140;2023-04-24T04:49:43;14.52;;;8.27;;
40609;SDS011;26316;55.976;37.140;2023-04-24T04:52:16;11.52;;;8.55;;
40609;SDS011;26316;55.976;37.140;2023-04-24T04:54:43;10.30;;;7.30;;
40609;SDS011;26316;55.976;37.140;2023-04-24T04:57:10;10.25;;;7.78;;
40609;SDS011;26316;55.976;37.140;2023-04-24T04:59:36;11.15;;;7.03;;
40609;SDS011;26316;55.976;37.140;2023-04-24T05:02:06;11.30;;;7.53;;
40609;SDS011;26316;55.976;37.140;2023-04-24T05:04:32;10.77;;;7.65;;
40609;SDS011;26316;55.976;37.140;2023-04-24T05:06:58;10.30;;;7.25;;
40609;SDS011;26316;55.976;37.140;2023-04-24T05:09:26;10.38;;;6.60;;
40609;SDS011;26316;55.976;37.140;2023-04-24T05:11:59;11.07;;;7.50;;
40609;SDS011;26316;55.976;37.140;2023-04-24T05:14:26;10.55;;;7.28;;
40609;SDS011;26316;55.976;37.140;2023-04-24T05:16:52;11.32;;;7.35;;
40609;SDS011;26316;55.976;37.140;2023-04-24T05:19:19;13.23;;;7.88;;
40609;SDS011;26316;55.976;37.140;2023-04-24T05:21:45;14.25;;;7.80;;
40609;SDS011;26316;55.976;37.140;2023-04-24T05:24:11;13.20;;;7.97;;
40609;SDS011;26316;55.976;37.140;2023-04-24T05:27:03;15.38;;;8.15;;
40609;SDS011;26316;55.976;37.140;2023-04-24T05:29:37;9.85;;;7.20;;
40609;SDS011;26316;55.976;37.140;2023-04-24T05:32:04;8.80;;;6.63;;
40609;SDS011;26316;55.976;37.140;2023-04-24T05:34:31;10.68;;;7.20;;
40609;SDS011;26316;55.976;37.140;2023-04-24T05:36:57;8.88;;;7.07;;
40609;SDS011;26316;55.976;37.140;2023-04-24T05:39:23;8.70;;;7.50;;
40609;SDS011;26316;55.976;37.140;2023-04-24T05:41:50;10.68;;;7.40;;
40609;SDS011;26316;55.976;37.140;2023-04-24T05:44:16;12.07;;;7.15;;
40609;SDS011;26316;55.976;37.140;2023-04-24T05:46:42;10.52;;;7.65;;
40609;SDS011;26316;55.976;37.140;2023-04-24T05:49:09;10.18;;;6.88;;
40609;SDS011;26316;55.976;37.140;2023-04-24T05:51:35;9.80;;;6.90;;
40609;SDS011;26316;55.976;37.140;2023-04-24T05:54:01;13.07;;;7.00;;
40609;SDS011;26316;55.976;37.140;2023-04-24T05:56:28;8.25;;;6.50;;
40609;SDS011;26316;55.976;37.140;2023-04-24T05:58:54;7.13;;;6.15;;
40609;SDS011;26316;55.976;37.140;2023-04-24T06:01:20;10.65;;;6.88;;
40609;SDS011;26316;55.976;37.140;2023-04-24T06:03:54;9.45;;;6.95;;
40609;SDS011;26316;55.976;37.140;2023-04-24T06:06:20;9.70;;;6.63;;
40609;SDS011;26316;55.976;37.140;2023-04-24T06:08:46;11.38;;;6.95;;
40609;SDS011;26316;55.976;37.140;2023-04-24T06:11:12;11.32;;;7.00;;
40609;SDS011;26316;55.976;37.140;2023-04-24T06:13:38;15.43;;;7.35;;
40609;SDS011;26316;55.976;37.140;2023-04-24T06:16:30;8.50;;;6.68;;
40609;SDS011;26316;55.976;37.140;2023-04-24T06:19:01;10.55;;;6.22;;
40609;SDS011;26316;55.976;37.140;2023-04-24T06:21:28;10.52;;;6.25;;
40609;SDS011;26316;55.976;37.140;2023-04-24T06:23:54;8.15;;;6.72;;
40609;SDS011;26316;55.976;37.140;2023-04-24T06:26:21;9.45;;;5.78;;
40609;SDS011;26316;55.976;37.140;2023-04-24T06:28:47;9.05;;;6.28;;
40609;SDS011;26316;55.976;37.140;2023-04-24T06:31:13;10.10;;;6.40;;
40609;SDS011;26316;55.976;37.140;2023-04-24T06:33:39;8.40;;;6.57;;
40609;SDS011;26316;55.976;37.140;2023-04-24T06:36:05;9.70;;;6.10;;
40609;SDS011;26316;55.976;37.140;2023-04-24T06:38:31;7.13;;;6.22;;
40609;SDS011;26316;55.976;37.140;2023-04-24T06:40:57;9.73;;;6.30;;
40609;SDS011;26316;55.976;37.140;2023-04-24T06:43:23;11.02;;;7.15;;
40609;SDS011;26316;55.976;37.140;2023-04-24T06:45:49;14.18;;;7.57;;
40609;SDS011;26316;55.976;37.140;2023-04-24T06:48:15;14.77;;;7.47;;
40609;SDS011;26316;55.976;37.140;2023-04-24T06:50:40;21.88;;;14.68;;
40609;SDS011;26316;55.976;37.140;2023-04-24T06:53:06;44.92;;;36.17;;
40609;SDS011;26316;55.976;37.140;2023-04-24T06:55:32;44.38;;;32.97;;
40609;SDS011;26316;55.976;37.140;2023-04-24T06:57:57;25.38;;;18.98;;
40609;SDS011;26316;55.976;37.140;2023-04-24T07:00:23;21.02;;;15.40;;
40609;SDS011;26316;55.976;37.140;2023-04-24T07:02:49;18.85;;;14.35;;
40609;SDS011;26316;55.976;37.140;2023-04-24T07:05:15;18.30;;;14.85;;
40609;SDS011;26316;55.976;37.140;2023-04-24T07:07:41;17.80;;;13.25;;
40609;SDS011;26316;55.976;37.140;2023-04-24T07:10:07;15.68;;;12.57;;
40609;SDS011;26316;55.976;37.140;2023-04-24T07:12:33;15.20;;;11.82;;
40609;SDS011;26316;55.976;37.140;2023-04-24T07:15:00;19.70;;;10.73;;
40609;SDS011;26316;55.976;37.140;2023-04-24T07:17:25;17.13;;;11.20;;
40609;SDS011;26316;55.976;37.140;2023-04-24T07:19:51;20.88;;;11.23;;
40609;SDS011;26316;55.976;37.140;2023-04-24T07:22:17;19.73;;;10.18;;
40609;SDS011;26316;55.976;37.140;2023-04-24T07:24:43;20.63;;;9.52;;
40609;SDS011;26316;55.976;37.140;2023-04-24T07:27:09;16.35;;;8.43;;
40609;SDS011;26316;55.976;37.140;2023-04-24T07:29:35;13.70;;;8.90;;
40609;SDS011;26316;55.976;37.140;2023-04-24T07:32:01;12.73;;;8.77;;
40609;SDS011;26316;55.976;37.140;2023-04-24T07:34:27;14.20;;;9.95;;
40609;SDS011;26316;55.976;37.140;2023-04-24T07:36:52;22.58;;;10.00;;
40609;SDS011;26316;55.976;37.140;2023-04-24T07:39:18;13.50;;;9.10;;
40609;SDS011;26316;55.976;37.140;2023-04-24T07:41:44;11.60;;;8.18;;
40609;SDS011;26316;55.976;37.140;2023-04-24T07:44:10;10.32;;;7.75;;
40609;SDS011;26316;55.976;37.140;2023-04-24T07:46:35;14.10;;;8.15;;
40609;SDS011;26316;55.976;37.140;2023-04-24T07:49:01;14.43;;;7.88;;
40609;SDS011;26316;55.976;37.140;2023-04-24T07:51:27;9.32;;;7.13;;
40609;SDS011;26316;55.976;37.140;2023-04-24T07:53:53;9.05;;;6.97;;
40609;SDS011;26316;55.976;37.140;2023-04-24T07:56:20;8.95;;;7.32;;
40609;SDS011;26316;55.976;37.140;2023-04-24T07:58:46;12.27;;;7.28;;
40609;SDS011;26316;55.976;37.140;2023-04-24T08:01:13;12.23;;;6.63;;
40609;SDS011;26316;55.976;37.140;2023-04-24T08:03:38;7.88;;;6.93;;
40609;SDS011;26316;55.976;37.140;2023-04-24T08:06:04;7.40;;;6.60;;
40609;SDS011;26316;55.976;37.140;2023-04-24T08:08:30;10.45;;;6.68;;
40609;SDS011;26316;55.976;37.140;2023-04-24T08:10:56;12.35;;;6.28;;
40609;SDS011;26316;55.976;37.140;2023-04-24T08:13:21;7.85;;;6.10;;
40609;SDS011;26316;55.976;37.140;2023-04-24T08:15:47;9.32;;;5.82;;
40609;SDS011;26316;55.976;37.140;2023-04-24T08:18:13;11.75;;;6.28;;
40609;SDS011;26316;55.976;37.140;2023-04-24T08:20:41;8.35;;;5.72;;
40609;SDS011;26316;55.976;37.140;2023-04-24T08:23:07;6.65;;;5.25;;
40609;SDS011;26316;55.976;37.140;2023-04-24T08:25:32;5.53;;;4.85;;
40609;SDS011;26316;55.976;37.140;2023-04-24T08:28:01;7.10;;;5.07;;
40609;SDS011;26316;55.976;37.140;2023-04-24T08:30:29;7.20;;;4.97;;
40609;SDS011;26316;55.976;37.140;2023-04-24T08:32:55;7.45;;;5.00;;
40609;SDS011;26316;55.976;37.140;2023-04-24T08:35:20;5.22;;;4.68;;
40609;SDS011;26316;55.976;37.140;2023-04-24T08:37:47;8.13;;;4.70;;
40609;SDS011;26316;55.976;37.140;2023-04-24T08:40:14;5.65;;;4.68;;
40609;SDS011;26316;55.976;37.140;2023-04-24T08:42:43;5.35;;;4.38;;
40609;SDS011;26316;55.976;37.140;2023-04-24T08:45:13;4.75;;;4.32;;
40609;SDS011;26316;55.976;37.140;2023-04-24T08:47:39;8.57;;;4.68;;
40609;SDS011;26316;55.976;37.140;2023-04-24T08:50:06;9.82;;;4.60;;
40609;SDS011;26316;55.976;37.140;2023-04-24T08:52:34;7.10;;;4.22;;
40609;SDS011;26316;55.976;37.140;2023-04-24T08:55:00;4.10;;;3.72;;
40609;SDS011;26316;55.976;37.140;2023-04-24T08:57:31;6.32;;;4.55;;
40609;SDS011;26316;55.976;37.140;2023-04-24T08:59:58;5.05;;;4.25;;
40609;SDS011;26316;55.976;37.140;2023-04-24T09:02:25;4.50;;;4.10;;
40609;SDS011;26316;55.976;37.140;2023-04-24T09:04:52;4.03;;;3.65;;
40609;SDS011;26316;55.976;37.140;2023-04-24T09:07:18;6.43;;;4.13;;
40609;SDS011;26316;55.976;37.140;2023-04-24T09:09:45;4.63;;;3.85;;
40609;SDS011;26316;55.976;37.140;2023-04-24T09:12:11;4.78;;;3.78;;
40609;SDS011;26316;55.976;37.140;2023-04-24T09:14:37;7.38;;;3.92;;
40609;SDS011;26316;55.976;37.140;2023-04-24T09:17:10;5.00;;;4.47;;
40609;SDS011;26316;55.976;37.140;2023-04-24T09:19:36;6.93;;;4.20;;
40609;SDS011;26316;55.976;37.140;2023-04-24T09:22:06;4.38;;;3.97;;
40609;SDS011;26316;55.976;37.140;2023-04-24T09:26:58;4.20;;;3.78;;
40609;SDS011;26316;55.976;37.140;2023-04-24T09:29:27;4.90;;;3.88;;
40609;SDS011;26316;55.976;37.140;2023-04-24T09:31:53;3.97;;;3.67;;
40609;SDS011;26316;55.976;37.140;2023-04-24T09:34:22;4.22;;;3.58;;
40609;SDS011;26316;55.976;37.140;2023-04-24T09:36:49;8.93;;;3.13;;
40609;SDS011;26316;55.976;37.140;2023-04-24T09:39:16;11.85;;;4.93;;
40609;SDS011;26316;55.976;37.140;2023-04-24T09:41:50;7.57;;;4.20;;
40609;SDS011;26316;55.976;37.140;2023-04-24T09:44:17;6.63;;;4.20;;
40609;SDS011;26316;55.976;37.140;2023-04-24T09:46:49;5.35;;;3.67;;
40609;SDS011;26316;55.976;37.140;2023-04-24T09:49:16;5.68;;;4.00;;
40609;SDS011;26316;55.976;37.140;2023-04-24T09:51:47;6.90;;;3.47;;
40609;SDS011;26316;55.976;37.140;2023-04-24T09:54:14;5.03;;;3.88;;
40609;SDS011;26316;55.976;37.140;2023-04-24T09:56:47;6.47;;;3.53;;
40609;SDS011;26316;55.976;37.140;2023-04-24T09:59:15;3.67;;;3.38;;
40609;SDS011;26316;55.976;37.140;2023-04-24T10:01:41;3.90;;;3.42;;
40609;SDS011;26316;55.976;37.140;2023-04-24T10:04:16;3.75;;;3.45;;
40609;SDS011;26316;55.976;37.140;2023-04-24T10:06:43;3.65;;;3.35;;
40609;SDS011;26316;55.976;37.140;2023-04-24T10:09:10;5.35;;;3.40;;
40609;SDS011;26316;55.976;37.140;2023-04-24T10:11:37;3.70;;;3.30;;
40609;SDS011;26316;55.976;37.140;2023-04-24T10:14:03;3.92;;;3.13;;
40609;SDS011;26316;55.976;37.140;2023-04-24T10:16:29;5.30;;;2.90;;
40609;SDS011;26316;55.976;37.140;2023-04-24T10:18:55;5.22;;;3.03;;
40609;SDS011;26316;55.976;37.140;2023-04-24T10:21:24;4.28;;;3.88;;
40609;SDS011;26316;55.976;37.140;2023-04-24T10:23:52;4.80;;;3.00;;
40609;SDS011;26316;55.976;37.140;2023-04-24T10:26:19;5.13;;;3.33;;
40609;SDS011;26316;55.976;37.140;2023-04-24T10:28:45;3.33;;;3.03;;
40609;SDS011;26316;55.976;37.140;2023-04-24T10:31:11;3.40;;;3.10;;
40609;SDS011;26316;55.976;37.140;2023-04-24T10:33:38;3.75;;;3.30;;
40609;SDS011;26316;55.976;37.140;2023-04-24T10:36:07;4.97;;;3.65;;
40609;SDS011;26316;55.976;37.140;2023-04-24T10:38:34;5.28;;;2.92;;
40609;SDS011;26316;55.976;37.140;2023-04-24T10:41:10;3.40;;;2.92;;
40609;SDS011;26316;55.976;37.140;2023-04-24T10:43:41;4.10;;;3.05;;
40609;SDS011;26316;55.976;37.140;2023-04-24T10:46:08;3.38;;;2.90;;
40609;SDS011;26316;55.976;37.140;2023-04-24T10:48:35;6.30;;;3.70;;
40609;SDS011;26316;55.976;37.140;2023-04-24T10:51:10;5.05;;;3.33;;
40609;SDS011;26316;55.976;37.140;2023-04-24T10:53:38;5.22;;;2.90;;
40609;SDS011;26316;55.976;37.140;2023-04-24T10:56:07;3.60;;;3.13;;
40609;SDS011;26316;55.976;37.140;2023-04-24T10:58:42;3.60;;;2.97;;
40609;SDS011;26316;55.976;37.140;2023-04-24T11:01:26;4.88;;;2.95;;
40609;SDS011;26316;55.976;37.140;2023-04-24T11:03:57;4.38;;;2.95;;
40609;SDS011;26316;55.976;37.140;2023-04-24T11:06:30;4.07;;;3.30;;
40609;SDS011;26316;55.976;37.140;2023-04-24T11:09:07;3.10;;;2.80;;
40609;SDS011;26316;55.976;37.140;2023-04-24T11:11:35;3.47;;;3.17;;
40609;SDS011;26316;55.976;37.140;2023-04-24T11:14:04;3.60;;;3.30;;
40609;SDS011;26316;55.976;37.140;2023-04-24T11:16:32;5.22;;;3.10;;
40609;SDS011;26316;55.976;37.140;2023-04-24T11:19:01;4.17;;;3.17;;
40609;SDS011;26316;55.976;37.140;2023-04-24T11:21:43;5.22;;;3.25;;
40609;SDS011;26316;55.976;37.140;2023-04-24T11:24:21;3.10;;;2.70;;
40609;SDS011;26316;55.976;37.140;2023-04-24T11:26:47;3.03;;;2.78;;
40609;SDS011;26316;55.976;37.140;2023-04-24T11:29:12;6.95;;;3.20;;
40609;SDS011;26316;55.976;37.140;2023-04-24T11:31:41;5.18;;;3.50;;
40609;SDS011;26316;55.976;37.140;2023-04-24T11:34:15;4.28;;;3.08;;
40609;SDS011;26316;55.976;37.140;2023-04-24T11:36:47;4.15;;;3.20;;
40609;SDS011;26316;55.976;37.140;2023-04-24T11:39:13;3.72;;;3.33;;
40609;SDS011;26316;55.976;37.140;2023-04-24T11:41:40;2.88;;;2.67;;
40609;SDS011;26316;55.976;37.140;2023-04-24T11:44:06;3.45;;;3.15;;
40609;SDS011;26316;55.976;37.140;2023-04-24T11:46:33;3.47;;;3.17;;
40609;SDS011;26316;55.976;37.140;2023-04-24T11:48:59;4.88;;;3.33;;
40609;SDS011;26316;55.976;37.140;2023-04-24T11:51:26;5.00;;;3.75;;
40609;SDS011;26316;55.976;37.140;2023-04-24T11:53:53;5.47;;;3.38;;
40609;SDS011;26316;55.976;37.140;2023-04-24T11:56:24;8.32;;;3.08;;
40609;SDS011;26316;55.976;37.140;2023-04-24T11:58:53;3.90;;;3.17;;
40609;SDS011;26316;55.976;37.140;2023-04-24T12:03:49;3.78;;;2.97;;
40609;SDS011;26316;55.976;37.140;2023-04-24T12:06:16;4.63;;;3.10;;
40609;SDS011;26316;55.976;37.140;2023-04-24T12:08:45;4.05;;;3.45;;
40609;SDS011;26316;55.976;37.140;2023-04-24T12:11:14;4.50;;;3.30;;
40609;SDS011;26316;55.976;37.140;2023-04-24T12:13:41;3.33;;;3.05;;
40609;SDS011;26316;55.976;37.140;2023-04-24T12:16:06;5.45;;;3.88;;
40609;SDS011;26316;55.976;37.140;2023-04-24T12:18:33;3.53;;;3.22;;
40609;SDS011;26316;55.976;37.140;2023-04-24T12:21:15;3.67;;;3.15;;
40609;SDS011;26316;55.976;37.140;2023-04-24T12:23:44;3.88;;;3.45;;
40609;SDS011;26316;55.976;37.140;2023-04-24T12:26:11;4.47;;;3.20;;
40609;SDS011;26316;55.976;37.140;2023-04-24T12:28:38;5.50;;;3.45;;
40609;SDS011;26316;55.976;37.140;2023-04-24T12:31:04;4.65;;;3.08;;
40609;SDS011;26316;55.976;37.140;2023-04-24T12:33:34;5.15;;;3.55;;
40609;SDS011;26316;55.976;37.140;2023-04-24T12:38:27;6.35;;;3.35;;
40609;SDS011;26316;55.976;37.140;2023-04-24T12:41:05;5.85;;;3.25;;
40609;SDS011;26316;55.976;37.140;2023-04-24T12:43:32;3.92;;;3.00;;
40609;SDS011;26316;55.976;37.140;2023-04-24T12:45:58;3.60;;;3.00;;
40609;SDS011;26316;55.976;37.140;2023-04-24T12:48:27;3.63;;;3.28;;
40609;SDS011;26316;55.976;37.140;2023-04-24T12:50:53;4.13;;;3.25;;
40609;SDS011;26316;55.976;37.140;2023-04-24T12:53:20;3.38;;;3.15;;
40609;SDS011;26316;55.976;37.140;2023-04-24T12:55:46;4.10;;;3.55;;
40609;SDS011;26316;55.976;37.140;2023-04-24T12:58:18;4.13;;;3.50;;
40609;SDS011;26316;55.976;37.140;2023-04-24T13:00:45;3.70;;;3.40;;
40609;SDS011;26316;55.976;37.140;2023-04-24T13:03:12;4.32;;;3.20;;
40609;SDS011;26316;55.976;37.140;2023-04-24T13:05:38;4.70;;;3.85;;
40609;SDS011;26316;55.976;37.140;2023-04-24T13:08:03;4.05;;;3.42;;
40609;SDS011;26316;55.976;37.140;2023-04-24T13:10:29;3.65;;;3.35;;
40609;SDS011;26316;55.976;37.140;2023-04-24T13:12:55;4.78;;;3.55;;
40609;SDS011;26316;55.976;37.140;2023-04-24T13:15:21;4.55;;;3.50;;
40609;SDS011;26316;55.976;37.140;2023-04-24T13:17:47;3.83;;;3.47;;
40609;SDS011;26316;55.976;37.140;2023-04-24T13:20:13;5.97;;;3.42;;
40609;SDS011;26316;55.976;37.140;2023-04-24T13:22:38;5.05;;;3.40;;
40609;SDS011;26316;55.976;37.140;2023-04-24T13:25:04;4.45;;;3.05;;
40609;SDS011;26316;55.976;37.140;2023-04-24T13:27:31;7.75;;;3.40;;
40609;SDS011;26316;55.976;37.140;2023-04-24T13:29:58;3.42;;;3.15;;
40609;SDS011;26316;55.976;37.140;2023-04-24T13:32:23;3.58;;;3.28;;
40609;SDS011;26316;55.976;37.140;2023-04-24T13:34:50;4.80;;;3.63;;
40609;SDS011;26316;55.976;37.140;2023-04-24T13:37:16;4.63;;;3.78;;
40609;SDS011;26316;55.976;37.140;2023-04-24T13:39:41;4.35;;;3.25;;
40609;SDS011;26316;55.976;37.140;2023-04-24T13:42:07;4.40;;;3.35;;
40609;SDS011;26316;55.976;37.140;2023-04-24T13:44:33;3.40;;;3.10;;
40609;SDS011;26316;55.976;37.140;2023-04-24T13:46:59;4.20;;;3.13;;
40609;SDS011;26316;55.976;37.140;2023-04-24T13:49:25;4.18;;;3.30;;
40609;SDS011;26316;55.976;37.140;2023-04-24T13:51:52;3.95;;;2.90;;
40609;SDS011;26316;55.976;37.140;2023-04-24T13:54:18;5.28;;;3.08;;
40609;SDS011;26316;55.976;37.140;2023-04-24T13:56:44;2.88;;;2.67;;
40609;SDS011;26316;55.976;37.140;2023-04-24T13:59:12;5.00;;;3.13;;
40609;SDS011;26316;55.976;37.140;2023-04-24T14:01:38;5.18;;;3.10;;
40609;SDS011;26316;55.976;37.140;2023-04-24T14:04:04;5.05;;;3.10;;
40609;SDS011;26316;55.976;37.140;2023-04-24T14:06:30;5.22;;;3.30;;
40609;SDS011;26316;55.976;37.140;2023-04-24T14:08:56;6.53;;;3.45;;
40609;SDS011;26316;55.976;37.140;2023-04-24T14:11:22;6.03;;;2.97;;
40609;SDS011;26316;55.976;37.140;2023-04-24T14:13:48;4.10;;;3.15;;
40609;SDS011;26316;55.976;37.140;2023-04-24T14:16:14;6.30;;;4.15;;
40609;SDS011;26316;55.976;37.140;2023-04-24T14:18:39;5.22;;;3.67;;
40609;SDS011;26316;55.976;37.140;2023-04-24T14:21:05;4.75;;;3.42;;
40609;SDS011;26316;55.976;37.140;2023-04-24T14:23:31;4.88;;;2.95;;
40609;SDS011;26316;55.976;37.140;2023-04-24T14:25:57;2.85;;;2.55;;
40609;SDS011;26316;55.976;37.140;2023-04-24T14:28:24;3.25;;;3.05;;
40609;SDS011;26316;55.976;37.140;2023-04-24T14:30:50;4.13;;;3.00;;
40609;SDS011;26316;55.976;37.140;2023-04-24T14:33:16;3.60;;;3.25;;
40609;SDS011;26316;55.976;37.140;2023-04-24T14:35:42;3.20;;;2.90;;
40609;SDS011;26316;55.976;37.140;2023-04-24T14:38:08;4.13;;;3.08;;
40609;SDS011;26316;55.976;37.140;2023-04-24T14:40:34;4.47;;;3.25;;
40609;SDS011;26316;55.976;37.140;2023-04-24T14:43:00;4.75;;;3.83;;